Terminal Aerodrome Forecast
Issued by NWS

Home | Current Version | Previous Version | Text Only | Print | Product List | Glossary On
Versions: 1 2 3 4 5 6 7 8 9 10 11 12 13 14 15 16 17 18
000
FTUS44 KLZK 230057 AAB
TAFLLQ
TAF AMD
KLLQ 230057Z 2301/2324 11005KT P6SM -SHRA SCT020 BKN025 OVC045
      TEMPO 2301/2304 VRB15G25KT 2SM TSRA BKN020CB
     FM230400 13008KT 4SM SHRA BR BKN005 OVC012
     FM231200 22015G25KT 4SM SHRA BR OVC005
     FM231500 22012G20KT 6SM SHRA SCT005 BKN010 PROB30 2318/2324 4SM
      TSRA BR BKN010CB=

USA.gov is the U.S. government's official web portal to all federal, state and local government web resources and services.